Bridger, Montana
Current Conditions -  °F | °C
As of 11:15 AM on Thursday 29 Jan 2015 (Local Time) from KPOY Reporting Station
Clear Clear  
Wind Chill: -3°   Ceiling: Unl
Heat Index:   Visibility: 10mi
Dew Point: -2°   Wind: 10mph
Humidity: 81%   Direction: 120°ESE
Pressure: 30.38"   Gusts: NA
Location:  45.3°N, 108.91°W
Report Text: KPOY 291815Z AUTO 12009KT 10SM CLR 01/M02 A3038 RMK AO2
Loading
Personal Weather Stations






























Interactive Weather Map New forecast layout! Learn more

10-Day Weather Forecast

Advertisements
Track Severe Weather on mobile